WetterOnline ( https://www.wetteronline.de )

Wetter aktuell Am Römerhof

Aktuelles Wetter: Gießen (195m)

6-stündlich | Neueste Meldungen
Ortszeit Temperatur Wetter
Di, 21.03. 7:00 6.1° C fast wolkenlos
Di, 21.03. 1:00 7.9° C bedeckt
Mo, 20.03. 19:00 8.2° C leichter Regen
Mo, 20.03. 13:00 11.3° C wolkig
Mo, 20.03. 7:00 7.6° C bewölkt
Mo, 20.03. 1:00 8.0° C bewölkt
So, 19.03. 19:00 10.7° C wolkig
So, 19.03. 13:00 13.0° C bewölkt
Ortszeit Temperatur Wetter
Di, 21.03. 11:00 10.3° C Sprühregen
Di, 21.03. 10:50 10.3° C Sprühregen
Di, 21.03. 10:40 10.2° C Sprühregen
Di, 21.03. 10:30 10.2° C Sprühregen
Di, 21.03. 10:20 10.2° C Sprühregen
Di, 21.03. 10:10 10.2° C bedeckt
Di, 21.03. 10:00 9.9° C bedeckt
Di, 21.03. 9:30 9.8° C bedeckt
Di, 21.03. 9:00 8.9° C bedeckt
Di, 21.03. 8:30 8.2° C bedeckt
Di, 21.03. 8:00 7.4° C bedeckt
Ortszeit Relative Feuchte Sichtweite
Di, 21.03. 7:00 92% 30 km
Di, 21.03. 1:00 79% 40 km
Mo, 20.03. 19:00 77% 35 km
Mo, 20.03. 13:00 72% 30 km
Mo, 20.03. 7:00 93% 7 km
Mo, 20.03. 1:00 95% 35 km
So, 19.03. 19:00 82% >70 km
So, 19.03. 13:00 74% 50 km
Ortszeit Relative Feuchte Sichtweite
Di, 21.03. 11:00 80% 16 km
Di, 21.03. 10:50 80% -
Di, 21.03. 10:40 78% -
Di, 21.03. 10:30 78% 22 km
Di, 21.03. 10:20 78% -
Di, 21.03. 10:10 78% -
Di, 21.03. 10:00 77% 30 km
Di, 21.03. 9:30 80% 35 km
Di, 21.03. 9:00 82% 35 km
Di, 21.03. 8:30 85% 29 km
Di, 21.03. 8:00 86% 30 km
Ortszeit Niederschlagsmenge Niederschlagsart
Di, 21.03. 7:00 0.1 l/m2 in 12 Std. Regen
Di, 21.03. 1:00 0.1 l/m2 in 6 Std. Regen
Mo, 20.03. 19:00 0.1 l/m2 in 12 Std. Regen
Mo, 20.03. 13:00 0.0 l/m2 in 6 Std. -
Mo, 20.03. 7:00 0.1 l/m2 in 12 Std. -
Mo, 20.03. 1:00 0.1 l/m2 in 6 Std. Sprühregen
So, 19.03. 19:00 0.1 l/m2 in 12 Std. Regen
So, 19.03. 13:00 0.1 l/m2 in 6 Std. Regen
Ortszeit Niederschlagsmenge Niederschlagsart
Di, 21.03. 11:00 <0.05 l/m2 in 1 Std. Regen
Di, 21.03. 10:50 keine Meldung -
Di, 21.03. 10:40 keine Meldung -
Di, 21.03. 10:30 <0.05 l/m2 in 30 Min -
Di, 21.03. 10:20 keine Meldung -
Di, 21.03. 10:10 keine Meldung -
Di, 21.03. 10:00 0.0 l/m2 in 1 Std. -
Di, 21.03. 9:30 0.0 l/m2 in 30 Min -
Di, 21.03. 9:00 0.0 l/m2 in 1 Std. -
Di, 21.03. 8:30 0.0 l/m2 in 30 Min -
Di, 21.03. 8:00 0.0 l/m2 in 1 Std. -
Ortszeit Stärke Spitze Richtung
km/h Bft. km/h Grad Sektor
Di, 21.03. 7:00 2 1 13 210° SW
Di, 21.03. 1:00 9 2 17 160° S
Mo, 20.03. 19:00 11 2 40 210° SW
Mo, 20.03. 13:00 18 3 32 240° SW
Mo, 20.03. 7:00 11 2 25 230° SW
Mo, 20.03. 1:00 4 1 11 230° SW
So, 19.03. 19:00 7 2 40 290° W
So, 19.03. 13:00 14 3 18 220° SW
Ortszeit Stärke Spitze Richtung
km/h Bft. km/h Grad Sektor
Di, 21.03. 11:00 6 1 7 180° S
Di, 21.03. 10:50 6 1 - 180° S
Di, 21.03. 10:40 4 1 - 190° S
Di, 21.03. 10:30 4 1 7 210° SW
Di, 21.03. 10:20 4 1 - 210° SW
Di, 21.03. 10:10 6 1 - 150° SO
Di, 21.03. 10:00 6 1 9 170° S
Di, 21.03. 9:30 6 1 9 180° S
Di, 21.03. 9:00 7 2 11 120° SO
Di, 21.03. 8:30 4 1 7 80° O
Di, 21.03. 8:00 4 1 4 70° O
Ortszeit Untergrenze Bedeckung Gattung
total tief tief mittel hoch
Di, 21.03. 7:00 9000 m 1/8 0/8 - - -
Di, 21.03. 1:00 1800 m 8/8 8/8 - - -
Mo, 20.03. 19:00 1500 m 8/8 8/8 - - -
Mo, 20.03. 13:00 780 m 7/8 5/8 - - -
Mo, 20.03. 7:00 1800 m 7/8 7/8 - - -
Mo, 20.03. 1:00 1380 m 7/8 7/8 - - -
So, 19.03. 19:00 6000 m 6/8 6/8 - - -
So, 19.03. 13:00 1320 m 7/8 7/8 - - -
Ortszeit Bedeckungsgrad in Achtel und Wolkenuntergrenze
Di, 21.03. 11:00 8(720m)
Di, 21.03. 10:50 8(720m)
Di, 21.03. 10:40 8
Di, 21.03. 10:30 6(780m) 8(930m)
Di, 21.03. 10:20 6(780m) 8(930m)
Di, 21.03. 10:10 8
Di, 21.03. 10:00 8(870m)
Di, 21.03. 9:30 7(840m) 8(1050m)
Di, 21.03. 9:00 8(810m)
Di, 21.03. 8:30 8(840m)
Di, 21.03. 8:00 8(870m)
Ortszeit Luftdruck NN (hPa) Tendenz (hPa in 3 Std.)
Di, 21.03. 7:00 1018 - 0,6
Di, 21.03. 1:00 1019 - 0,3
Mo, 20.03. 19:00 1020 + 0,6
Mo, 20.03. 13:00 1020 - 0,5
Mo, 20.03. 7:00 1020 + 0,5
Mo, 20.03. 1:00 1019 + 0,6
So, 19.03. 19:00 1016 + 0,9
So, 19.03. 13:00 1015 + 0,3
Ortszeit Luftdruck NN (hPa) Tendenz (hPa in 3 Std.)
Di, 21.03. 11:00 1017 - 0,3
Di, 21.03. 10:50 1017 keine Meldung
Di, 21.03. 10:40 1017 keine Meldung
Di, 21.03. 10:30 1017 - 0,2
Di, 21.03. 10:20 1017 keine Meldung
Di, 21.03. 10:10 1017 keine Meldung
Di, 21.03. 10:00 1017 0,0
Di, 21.03. 9:30 1017 - 0,1
Di, 21.03. 9:00 1017 - 0,1
Di, 21.03. 8:30 1017 - 0,3
Di, 21.03. 8:00 1018 - 0,1
Ortszeit Schneehöhe (cm)
Di, 21.03. 7:00 0
Di, 21.03. 1:00 0
Mo, 20.03. 19:00 0
Mo, 20.03. 13:00 0
Mo, 20.03. 7:00 0
Mo, 20.03. 1:00 0
So, 19.03. 19:00 0
So, 19.03. 13:00 0
Ortszeit Schneehöhe (cm)
Di, 21.03. 11:00 0
Di, 21.03. 10:50 0
Di, 21.03. 10:40 -
Di, 21.03. 10:30 0
Di, 21.03. 10:20 0
Di, 21.03. 10:10 -
Di, 21.03. 10:00 0
Di, 21.03. 9:30 0
Di, 21.03. 9:00 0
Di, 21.03. 8:30 0
Di, 21.03. 8:00 0
Link zu dieser Seite / Seite empfehlen

Das Wetter in ...